Aviation Digital Data Service (ADDS)

Output produced by METARs form (0122 UTC 20 January 2018)
found at http://aviationweather.gov/adds/metars/
 
KAUS 200053Z 00000KT 8SM -RA OVC009 11/10 A3008 RMK AO2 RAB49 SLP189 P0000 T01110100
KAUS 200034Z 00000KT 10SM OVC009 12/10 A3008 RMK AO2 T01170100
KAUS 192353Z 00000KT 10SM OVC014 12/09 A3008 RMK AO2 RAE00 SLP188 P0000 60000 T01170094 10128 20078 56014
KAUS 192330Z 13005KT 10SM OVC014 12/09 A3008 RMK AO2 RAE00 P0000 T01170094
KAUS 192253Z 16005KT 6SM -RA BR OVC018 12/09 A3009 RMK AO2 RAB51 SLP193 P0000 T01220089
KAUS 192153Z 13003KT 10SM OVC020 12/07 A3011 RMK AO2 SLP198 T01220072
KAUS 200043Z 2001/2106 00000KT P6SM VCSH OVC009 
     FM200300 VRB03KT 3SM BR BKN006 
     FM200600 19003KT 1SM BR OVC002 
     FM200800 20002KT 1/2SM FG OVC001 
     FM201700 18010KT 6SM BR SCT008 
     FM210500 17008KT 3SM BR OVC007
       
KRYW 200115Z AUTO 7SM -DZ OVC007 09/09 A3008 RMK AO2 T00930088
KRYW 200055Z AUTO 10SM OVC009 09/09 A3008 RMK AO2 T00920088
KRYW 200035Z AUTO 7SM -RA OVC009 09/09 A3007 RMK AO2 T00920090
KRYW 200015Z AUTO 7SM OVC009 09/09 A3007 RMK AO2 T00920090
KRYW 192355Z AUTO 7SM -RA OVC011 09/09 A3007 RMK AO2 T00920090 10095 20082
KRYW 192335Z AUTO 5SM RA SCT004 OVC011 09/09 A3007 RMK AO2 T00940091
KRYW 192315Z AUTO 3SM DZ BKN004 OVC011 10/09 A3008 RMK AO2 T00950091
KRYW 192255Z AUTO 4SM BR BKN004 OVC011 10/09 A3008 RMK AO2 T00950092
KRYW 192235Z AUTO 4SM BR BKN004 OVC011 10/09 A3008 RMK AO2 T00950092
KRYW 192215Z AUTO 3SM BR BKN002 OVC011 09/09 A3009 RMK AO2 T00930092
KRYW 192155Z AUTO 2 1/2SM BR OVC002 09/09 A3010 RMK AO2 T00920091
KRYW 192135Z AUTO 1 3/4SM +DZ OVC002 09/09 A3010 RMK AO2 T00920091